PWSweather.com
Personal Weather Stations
Station Observations
GEELONGWX1
Bell Post Hill, GeelongAU

Bell Post HillGeelongAU

Lat: -38.101, Lon: 144.326

Elevation: 204

Station Type: Davis Vantage Pro2

http://www.geelongweather.com

High Low Average
Temperature 76.9°F24.9°F 49.7°F9.8°F 62.4°F16.9°F
Dew Point 57.7°F14.3°F 43.1°F6.2°F 51.5°F10.8°F
Winds 8.4 mph S13.5 mph S Calm Calm 3.0 mph 4.8 mph
Wind Gusts 15.0 mph24.1 mph -- 5.9 mph9.5 mph
Humidity 78% 48% 69%
Pressure 30.44 in1030.80 in 30.23 in1023.70 in -
Precipitation 0.00 in0.00 in - -
Hour Temp Dew Point Humidity Winds Wind Gusts Pressure Precip Precip Rate Daily Precip Total
12:10 AM 51.8°F11.0°C 44.8°F7.1°C 77% 4.0 mph S6.4 kmh S 8.0 mph12.9 kmh 30.44 in1030.8 mb 0.00 in0.0 mm 0.00 in/hr0.0 mm/hr 0.00 in0.0 mm
12:20 AM 51.7°F10.9°C 44.7°F7.1°C 77% 4.6 mph SSW7.4 kmh SSW 7.0 mph11.3 kmh 30.43 in1030.5 mb 0.00 in0.0 mm 0.00 in/hr0.0 mm/hr 0.00 in0.0 mm
12:30 AM 51.7°F10.9°C 44.7°F7.1°C 77% 4.3 mph SSW6.9 kmh SSW 7.0 mph11.3 kmh 30.42 in1030.1 mb 0.00 in0.0 mm 0.00 in/hr0.0 mm/hr 0.00 in0.0 mm
12:40 AM 51.6°F10.9°C 45.0°F7.2°C 78% 3.4 mph SW5.5 kmh SW 10.0 mph16.1 kmh 30.42 in1030.1 mb 0.00 in0.0 mm 0.00 in/hr0.0 mm/hr 0.00 in0.0 mm
12:50 AM 51.6°F10.9°C 45.0°F7.2°C 78% 5.1 mph S8.2 kmh S 8.0 mph12.9 kmh 30.42 in1030.1 mb 0.00 in0.0 mm 0.00 in/hr0.0 mm/hr 0.00 in0.0 mm
01:00 AM 51.6°F10.9°C 45.0°F7.2°C 78% 3.8 mph S6.1 kmh S 8.0 mph12.9 kmh 30.41 in1029.8 mb 0.00 in0.0 mm 0.00 in/hr0.0 mm/hr 0.00 in0.0 mm
01:10 AM 51.6°F10.9°C 45.0°F7.2°C 78% 4.0 mph S6.4 kmh S 10.0 mph16.1 kmh 30.41 in1029.8 mb 0.00 in0.0 mm 0.00 in/hr0.0 mm/hr 0.00 in0.0 mm
01:20 AM 51.6°F10.9°C 45.0°F7.2°C 78% 4.3 mph S6.9 kmh S 7.0 mph11.3 kmh 30.41 in1029.8 mb 0.00 in0.0 mm 0.00 in/hr0.0 mm/hr 0.00 in0.0 mm
01:30 AM 51.7°F10.9°C 45.0°F7.2°C 78% 3.6 mph S5.8 kmh S 8.0 mph12.9 kmh 30.41 in1029.8 mb 0.00 in0.0 mm 0.00 in/hr0.0 mm/hr 0.00 in0.0 mm
01:40 AM 51.7°F10.9°C 45.1°F7.3°C 78% 5.6 mph S9.0 kmh S 11.0 mph17.7 kmh 30.41 in1029.8 mb 0.00 in0.0 mm 0.00 in/hr0.0 mm/hr 0.00 in0.0 mm
01:50 AM 51.8°F11.0°C 45.2°F7.3°C 78% 5.0 mph S8.0 kmh S 9.0 mph14.5 kmh 30.40 in1029.5 mb 0.00 in0.0 mm 0.00 in/hr0.0 mm/hr 0.00 in0.0 mm
02:00 AM 52.2°F11.2°C 45.5°F7.5°C 78% 6.6 mph ESE10.6 kmh ESE 13.0 mph20.9 kmh 30.40 in1029.5 mb 0.00 in0.0 mm 0.00 in/hr0.0 mm/hr 0.00 in0.0 mm
02:10 AM 52.4°F11.3°C 45.7°F7.6°C 78% 4.4 mph S7.1 kmh S 10.0 mph16.1 kmh 30.40 in1029.5 mb 0.00 in0.0 mm 0.00 in/hr0.0 mm/hr 0.00 in0.0 mm
02:20 AM 52.5°F11.4°C 45.8°F7.7°C 78% 6.9 mph S11.1 kmh S 15.0 mph24.1 kmh 30.39 in1029.1 mb 0.00 in0.0 mm 0.00 in/hr0.0 mm/hr 0.00 in0.0 mm
02:30 AM 52.5°F11.4°C 45.8°F7.7°C 78% 5.9 mph SSE9.5 kmh SSE 11.0 mph17.7 kmh 30.39 in1029.1 mb 0.00 in0.0 mm 0.00 in/hr0.0 mm/hr 0.00 in0.0 mm
02:40 AM 52.5°F11.4°C 45.8°F7.7°C 78% 7.3 mph SSE11.7 kmh SSE 12.0 mph19.3 kmh 30.39 in1029.1 mb 0.00 in0.0 mm 0.00 in/hr0.0 mm/hr 0.00 in0.0 mm
02:50 AM 52.5°F11.4°C 45.8°F7.7°C 78% 6.2 mph S10.0 kmh S 11.0 mph17.7 kmh 30.38 in1028.8 mb 0.00 in0.0 mm 0.00 in/hr0.0 mm/hr 0.00 in0.0 mm
03:00 AM 52.4°F11.3°C 45.8°F7.7°C 78% 3.9 mph S6.3 kmh S 11.0 mph17.7 kmh 30.38 in1028.8 mb 0.00 in0.0 mm 0.00 in/hr0.0 mm/hr 0.00 in0.0 mm
03:10 AM 52.4°F11.3°C 45.7°F7.6°C 78% 8.0 mph S12.9 kmh S 13.0 mph20.9 kmh 30.38 in1028.8 mb 0.00 in0.0 mm 0.00 in/hr0.0 mm/hr 0.00 in0.0 mm
03:20 AM 52.3°F11.3°C 45.7°F7.6°C 78% 3.6 mph S5.8 kmh S 7.0 mph11.3 kmh 30.38 in1028.8 mb 0.00 in0.0 mm 0.00 in/hr0.0 mm/hr 0.00 in0.0 mm
03:30 AM 52.2°F11.2°C 45.6°F7.6°C 78% 4.4 mph SE7.1 kmh SE 8.0 mph12.9 kmh 30.38 in1028.8 mb 0.00 in0.0 mm 0.00 in/hr0.0 mm/hr 0.00 in0.0 mm
03:40 AM 52.1°F11.2°C 45.4°F7.4°C 78% 5.9 mph S9.5 kmh S 8.0 mph12.9 kmh 30.38 in1028.8 mb 0.00 in0.0 mm 0.00 in/hr0.0 mm/hr 0.00 in0.0 mm
03:50 AM 52.0°F11.1°C 45.4°F7.4°C 78% 4.4 mph S7.1 kmh S 9.0 mph14.5 kmh 30.38 in1028.8 mb 0.00 in0.0 mm 0.00 in/hr0.0 mm/hr 0.00 in0.0 mm
04:00 AM 51.9°F11.1°C 45.3°F7.4°C 78% 3.3 mph S5.3 kmh S 9.0 mph14.5 kmh 30.38 in1028.8 mb 0.00 in0.0 mm 0.00 in/hr0.0 mm/hr 0.00 in0.0 mm
04:10 AM 51.9°F11.1°C 45.3°F7.4°C 78% 3.6 mph SE5.8 kmh SE 10.0 mph16.1 kmh 30.38 in1028.8 mb 0.00 in0.0 mm 0.00 in/hr0.0 mm/hr 0.00 in0.0 mm
04:20 AM 51.9°F11.1°C 45.3°F7.4°C 78% 2.5 mph S4.0 kmh S 8.0 mph12.9 kmh 30.38 in1028.8 mb 0.00 in0.0 mm 0.00 in/hr0.0 mm/hr 0.00 in0.0 mm
04:30 AM 51.8°F11.0°C 45.2°F7.3°C 78% 3.2 mph SSW5.1 kmh SSW 9.0 mph14.5 kmh 30.37 in1028.4 mb 0.00 in0.0 mm 0.00 in/hr0.0 mm/hr 0.00 in0.0 mm
04:40 AM 51.8°F11.0°C 45.2°F7.3°C 78% 0.3 mph S0.5 kmh S 5.0 mph8.0 kmh 30.37 in1028.4 mb 0.00 in0.0 mm 0.00 in/hr0.0 mm/hr 0.00 in0.0 mm
04:50 AM 51.7°F10.9°C 45.1°F7.3°C 78% Calm Calm -- 30.37 in1028.4 mb 0.00 in0.0 mm 0.00 in/hr0.0 mm/hr 0.00 in0.0 mm
05:00 AM 51.6°F10.9°C 45.0°F7.2°C 78% Calm Calm -- 30.38 in1028.8 mb 0.00 in0.0 mm 0.00 in/hr0.0 mm/hr 0.00 in0.0 mm
05:10 AM 51.5°F10.8°C 44.9°F7.2°C 78% Calm Calm -- 30.38 in1028.8 mb 0.00 in0.0 mm 0.00 in/hr0.0 mm/hr 0.00 in0.0 mm
05:20 AM 51.2°F10.7°C 44.6°F7.0°C 78% Calm Calm -- 30.38 in1028.8 mb 0.00 in0.0 mm 0.00 in/hr0.0 mm/hr 0.00 in0.0 mm
05:30 AM 50.9°F10.5°C 44.3°F6.8°C 78% Calm Calm -- 30.38 in1028.8 mb 0.00 in0.0 mm 0.00 in/hr0.0 mm/hr 0.00 in0.0 mm
05:40 AM 50.5°F10.3°C 43.9°F6.6°C 78% Calm Calm -- 30.39 in1029.1 mb 0.00 in0.0 mm 0.00 in/hr0.0 mm/hr 0.00 in0.0 mm
05:50 AM 50.1°F10.1°C 43.5°F6.4°C 78% Calm Calm -- 30.39 in1029.1 mb 0.00 in0.0 mm 0.00 in/hr0.0 mm/hr 0.00 in0.0 mm
06:00 AM 49.8°F9.9°C 43.2°F6.2°C 78% Calm Calm -- 30.39 in1029.1 mb 0.00 in0.0 mm 0.00 in/hr0.0 mm/hr 0.00 in0.0 mm
06:10 AM 49.7°F9.8°C 43.1°F6.2°C 78% Calm Calm -- 30.39 in1029.1 mb 0.00 in0.0 mm 0.00 in/hr0.0 mm/hr 0.00 in0.0 mm
06:20 AM 49.8°F9.9°C 43.2°F6.2°C 78% Calm Calm -- 30.40 in1029.5 mb 0.00 in0.0 mm 0.00 in/hr0.0 mm/hr 0.00 in0.0 mm
06:30 AM 50.1°F10.1°C 43.5°F6.4°C 78% Calm Calm -- 30.40 in1029.5 mb 0.00 in0.0 mm 0.00 in/hr0.0 mm/hr 0.00 in0.0 mm
06:40 AM 52.0°F11.1°C 45.0°F7.2°C 77% Calm Calm -- 30.40 in1029.5 mb 0.00 in0.0 mm 0.00 in/hr0.0 mm/hr 0.00 in0.0 mm
06:50 AM 53.3°F11.8°C 46.3°F7.9°C 77% 0.8 mph SE1.3 kmh SE -- 30.40 in1029.5 mb 0.00 in0.0 mm 0.00 in/hr0.0 mm/hr 0.00 in0.0 mm
07:00 AM 53.7°F12.1°C 47.0°F8.3°C 78% 3.6 mph SSE5.8 kmh SSE 6.0 mph9.7 kmh 30.40 in1029.5 mb 0.00 in0.0 mm 0.00 in/hr0.0 mm/hr 0.00 in0.0 mm
07:10 AM 54.8°F12.7°C 48.1°F8.9°C 78% 1.4 mph S2.3 kmh S 1.0 mph1.6 kmh 30.40 in1029.5 mb 0.00 in0.0 mm 0.00 in/hr0.0 mm/hr 0.00 in0.0 mm
07:20 AM 55.6°F13.1°C 48.8°F9.3°C 78% 3.6 mph SE5.8 kmh SE 5.0 mph8.0 kmh 30.41 in1029.8 mb 0.00 in0.0 mm 0.00 in/hr0.0 mm/hr 0.00 in0.0 mm
07:30 AM 56.1°F13.4°C 49.3°F9.6°C 78% 3.8 mph SSE6.1 kmh SSE 7.0 mph11.3 kmh 30.41 in1029.8 mb 0.00 in0.0 mm 0.00 in/hr0.0 mm/hr 0.00 in0.0 mm
07:40 AM 56.2°F13.4°C 49.1°F9.5°C 77% 3.4 mph S5.5 kmh S 4.0 mph6.4 kmh 30.41 in1029.8 mb 0.00 in0.0 mm 0.00 in/hr0.0 mm/hr 0.00 in0.0 mm
07:50 AM 56.9°F13.8°C 49.8°F9.9°C 77% 3.9 mph S6.3 kmh S 7.0 mph11.3 kmh 30.41 in1029.8 mb 0.00 in0.0 mm 0.00 in/hr0.0 mm/hr 0.00 in0.0 mm
08:00 AM 57.5°F14.2°C 50.0°F10.0°C 76% 3.9 mph S6.3 kmh S 8.0 mph12.9 kmh 30.42 in1030.1 mb 0.00 in0.0 mm 0.00 in/hr0.0 mm/hr 0.00 in0.0 mm
08:10 AM 57.8°F14.3°C 49.9°F9.9°C 75% 3.7 mph SSE6.0 kmh SSE 6.0 mph9.7 kmh 30.42 in1030.1 mb 0.00 in0.0 mm 0.00 in/hr0.0 mm/hr 0.00 in0.0 mm
08:20 AM 57.8°F14.3°C 49.6°F9.8°C 74% 3.7 mph S6.0 kmh S 7.0 mph11.3 kmh 30.42 in1030.1 mb 0.00 in0.0 mm 0.00 in/hr0.0 mm/hr 0.00 in0.0 mm
08:30 AM 58.8°F14.9°C 50.5°F10.3°C 74% 4.4 mph SSE7.1 kmh SSE 8.0 mph12.9 kmh 30.41 in1029.8 mb 0.00 in0.0 mm 0.00 in/hr0.0 mm/hr 0.00 in0.0 mm
08:40 AM 59.4°F15.2°C 50.7°F10.4°C 73% 4.5 mph SSE7.2 kmh SSE 7.0 mph11.3 kmh 30.41 in1029.8 mb 0.00 in0.0 mm 0.00 in/hr0.0 mm/hr 0.00 in0.0 mm
08:50 AM 59.6°F15.3°C 50.6°F10.3°C 72% 6.0 mph SE9.7 kmh SE 8.0 mph12.9 kmh 30.41 in1029.8 mb 0.00 in0.0 mm 0.00 in/hr0.0 mm/hr 0.00 in0.0 mm
09:00 AM 59.2°F15.1°C 50.5°F10.3°C 73% 5.3 mph SE8.5 kmh SE 10.0 mph16.1 kmh 30.41 in1029.8 mb 0.00 in0.0 mm 0.00 in/hr0.0 mm/hr 0.00 in0.0 mm
09:10 AM 60.3°F15.7°C 51.9°F11.1°C 74% 4.6 mph SE7.4 kmh SE 10.0 mph16.1 kmh 30.41 in1029.8 mb 0.00 in0.0 mm 0.00 in/hr0.0 mm/hr 0.00 in0.0 mm
09:20 AM 60.8°F16.0°C 51.7°F10.9°C 72% 5.3 mph SSE8.5 kmh SSE 10.0 mph16.1 kmh 30.41 in1029.8 mb 0.00 in0.0 mm 0.00 in/hr0.0 mm/hr 0.00 in0.0 mm
09:30 AM 61.1°F16.2°C 51.6°F10.9°C 71% 5.8 mph SSE9.3 kmh SSE 10.0 mph16.1 kmh 30.41 in1029.8 mb 0.00 in0.0 mm 0.00 in/hr0.0 mm/hr 0.00 in0.0 mm
09:40 AM 61.3°F16.3°C 51.8°F11.0°C 71% 8.4 mph S13.5 kmh S 10.0 mph16.1 kmh 30.40 in1029.5 mb 0.00 in0.0 mm 0.00 in/hr0.0 mm/hr 0.00 in0.0 mm
09:50 AM 62.2°F16.8°C 52.2°F11.2°C 70% 6.4 mph SE10.3 kmh SE 9.0 mph14.5 kmh 30.40 in1029.5 mb 0.00 in0.0 mm 0.00 in/hr0.0 mm/hr 0.00 in0.0 mm
10:00 AM 62.2°F16.8°C 52.3°F11.3°C 70% 4.2 mph SSE6.8 kmh SSE 8.0 mph12.9 kmh 30.40 in1029.5 mb 0.00 in0.0 mm 0.00 in/hr0.0 mm/hr 0.00 in0.0 mm
10:10 AM 63.0°F17.2°C 52.3°F11.3°C 68% 4.9 mph SE7.9 kmh SE 9.0 mph14.5 kmh 30.39 in1029.1 mb 0.00 in0.0 mm 0.00 in/hr0.0 mm/hr 0.00 in0.0 mm
10:20 AM 62.9°F17.2°C 52.9°F11.6°C 70% 5.5 mph S8.9 kmh S 11.0 mph17.7 kmh 30.39 in1029.1 mb 0.00 in0.0 mm 0.00 in/hr0.0 mm/hr 0.00 in0.0 mm
10:30 AM 62.8°F17.1°C 52.9°F11.6°C 70% 7.2 mph S11.6 kmh S 12.0 mph19.3 kmh 30.39 in1029.1 mb 0.00 in0.0 mm 0.00 in/hr0.0 mm/hr 0.00 in0.0 mm
10:40 AM 63.8°F17.7°C 53.4°F11.9°C 69% 6.3 mph S10.1 kmh S 10.0 mph16.1 kmh 30.39 in1029.1 mb 0.00 in0.0 mm 0.00 in/hr0.0 mm/hr 0.00 in0.0 mm
10:50 AM 64.0°F17.8°C 53.2°F11.8°C 68% 6.0 mph SSE9.7 kmh SSE 10.0 mph16.1 kmh 30.39 in1029.1 mb 0.00 in0.0 mm 0.00 in/hr0.0 mm/hr 0.00 in0.0 mm
11:00 AM 64.8°F18.2°C 53.5°F11.9°C 67% 1.0 mph S1.6 kmh S -- 30.38 in1028.8 mb 0.00 in0.0 mm 0.00 in/hr0.0 mm/hr 0.00 in0.0 mm
11:10 AM 65.5°F18.6°C 53.8°F12.1°C 66% 7.2 mph S11.6 kmh S 10.0 mph16.1 kmh 30.38 in1028.8 mb 0.00 in0.0 mm 0.00 in/hr0.0 mm/hr 0.00 in0.0 mm
11:20 AM 66.3°F19.1°C 53.3°F11.8°C 63% 5.5 mph S8.9 kmh S 9.0 mph14.5 kmh 30.38 in1028.8 mb 0.00 in0.0 mm 0.00 in/hr0.0 mm/hr 0.00 in0.0 mm
11:30 AM 68.1°F20.1°C 53.7°F12.1°C 60% 4.0 mph SSE6.4 kmh SSE 8.0 mph12.9 kmh 30.38 in1028.8 mb 0.00 in0.0 mm 0.00 in/hr0.0 mm/hr 0.00 in0.0 mm
11:40 AM 68.3°F20.2°C 52.9°F11.6°C 58% 6.5 mph S10.5 kmh S 10.0 mph16.1 kmh 30.38 in1028.8 mb 0.00 in0.0 mm 0.00 in/hr0.0 mm/hr 0.00 in0.0 mm
11:50 AM 68.8°F20.4°C 52.9°F11.6°C 57% 3.4 mph S5.5 kmh S 9.0 mph14.5 kmh 30.37 in1028.4 mb 0.00 in0.0 mm 0.00 in/hr0.0 mm/hr 0.00 in0.0 mm
12:00 PM 69.0°F20.6°C 53.1°F11.7°C 57% 5.1 mph S8.2 kmh S 11.0 mph17.7 kmh 30.37 in1028.4 mb 0.00 in0.0 mm 0.00 in/hr0.0 mm/hr 0.00 in0.0 mm
12:10 PM 69.8°F21.0°C 53.4°F11.9°C 56% 2.0 mph SE3.2 kmh SE 9.0 mph14.5 kmh 30.36 in1028.1 mb 0.00 in0.0 mm 0.00 in/hr0.0 mm/hr 0.00 in0.0 mm
12:20 PM 70.3°F21.3°C 53.4°F11.9°C 55% 4.3 mph SE6.9 kmh SE 11.0 mph17.7 kmh 30.36 in1028.1 mb 0.00 in0.0 mm 0.00 in/hr0.0 mm/hr 0.00 in0.0 mm
12:30 PM 70.6°F21.4°C 53.2°F11.8°C 54% 3.5 mph SSE5.6 kmh SSE 7.0 mph11.3 kmh 30.35 in1027.8 mb 0.00 in0.0 mm 0.00 in/hr0.0 mm/hr 0.00 in0.0 mm
12:40 PM 71.5°F21.9°C 53.9°F12.2°C 54% 3.7 mph S6.0 kmh S 10.0 mph16.1 kmh 30.35 in1027.8 mb 0.00 in0.0 mm 0.00 in/hr0.0 mm/hr 0.00 in0.0 mm
12:50 PM 72.2°F22.3°C 54.1°F12.3°C 53% 4.8 mph S7.7 kmh S 9.0 mph14.5 kmh 30.34 in1027.4 mb 0.00 in0.0 mm 0.00 in/hr0.0 mm/hr 0.00 in0.0 mm
01:00 PM 72.8°F22.7°C 53.6°F12.0°C 51% 2.8 mph S4.5 kmh S 7.0 mph11.3 kmh 30.34 in1027.4 mb 0.00 in0.0 mm 0.00 in/hr0.0 mm/hr 0.00 in0.0 mm
01:10 PM 73.0°F22.8°C 53.8°F12.1°C 51% 6.7 mph S10.8 kmh S 13.0 mph20.9 kmh 30.34 in1027.4 mb 0.00 in0.0 mm 0.00 in/hr0.0 mm/hr 0.00 in0.0 mm
01:20 PM 73.2°F22.9°C 54.0°F12.2°C 51% 1.4 mph SE2.3 kmh SE 8.0 mph12.9 kmh 30.33 in1027.1 mb 0.00 in0.0 mm 0.00 in/hr0.0 mm/hr 0.00 in0.0 mm
01:30 PM 74.0°F23.3°C 54.1°F12.3°C 50% 6.4 mph SSE10.3 kmh SSE 11.0 mph17.7 kmh 30.33 in1027.1 mb 0.00 in0.0 mm 0.00 in/hr0.0 mm/hr 0.00 in0.0 mm
01:40 PM 74.7°F23.7°C 55.3°F12.9°C 51% 2.9 mph SE4.7 kmh SE 10.0 mph16.1 kmh 30.32 in1026.8 mb 0.00 in0.0 mm 0.00 in/hr0.0 mm/hr 0.00 in0.0 mm
01:50 PM 75.5°F24.2°C 55.0°F12.8°C 49% 1.9 mph SE3.1 kmh SE 7.0 mph11.3 kmh 30.31 in1026.4 mb 0.00 in0.0 mm 0.00 in/hr0.0 mm/hr 0.00 in0.0 mm
02:00 PM 75.7°F24.3°C 54.6°F12.6°C 48% 4.5 mph SSE7.2 kmh SSE 8.0 mph12.9 kmh 30.31 in1026.4 mb 0.00 in0.0 mm 0.00 in/hr0.0 mm/hr 0.00 in0.0 mm
02:10 PM 76.0°F24.4°C 55.4°F13.0°C 49% 2.5 mph S4.0 kmh S 7.0 mph11.3 kmh 30.30 in1026.1 mb 0.00 in0.0 mm 0.00 in/hr0.0 mm/hr 0.00 in0.0 mm
02:20 PM 76.0°F24.4°C 54.9°F12.7°C 48% 4.6 mph S7.4 kmh S 8.0 mph12.9 kmh 30.30 in1026.1 mb 0.00 in0.0 mm 0.00 in/hr0.0 mm/hr 0.00 in0.0 mm
02:30 PM 76.1°F24.5°C 55.0°F12.8°C 48% 3.4 mph S5.5 kmh S 9.0 mph14.5 kmh 30.30 in1026.1 mb 0.00 in0.0 mm 0.00 in/hr0.0 mm/hr 0.00 in0.0 mm
02:40 PM 75.9°F24.4°C 55.4°F13.0°C 49% 5.1 mph SE8.2 kmh SE 9.0 mph14.5 kmh 30.29 in1025.7 mb 0.00 in0.0 mm 0.00 in/hr0.0 mm/hr 0.00 in0.0 mm
02:50 PM 76.4°F24.7°C 55.8°F13.2°C 49% 2.0 mph SSE3.2 kmh SSE 8.0 mph12.9 kmh 30.29 in1025.7 mb 0.00 in0.0 mm 0.00 in/hr0.0 mm/hr 0.00 in0.0 mm
03:00 PM 76.4°F24.7°C 55.3°F12.9°C 48% 2.7 mph S4.3 kmh S 9.0 mph14.5 kmh 30.28 in1025.4 mb 0.00 in0.0 mm 0.00 in/hr0.0 mm/hr 0.00 in0.0 mm
03:10 PM 76.4°F24.7°C 55.8°F13.2°C 49% 5.4 mph SE8.7 kmh SE 9.0 mph14.5 kmh 30.28 in1025.4 mb 0.00 in0.0 mm 0.00 in/hr0.0 mm/hr 0.00 in0.0 mm
03:20 PM 76.9°F24.9°C 56.3°F13.5°C 49% 3.3 mph SE5.3 kmh SE 10.0 mph16.1 kmh 30.28 in1025.4 mb 0.00 in0.0 mm 0.00 in/hr0.0 mm/hr 0.00 in0.0 mm
03:30 PM 76.8°F24.9°C 56.2°F13.4°C 49% 5.7 mph SE9.2 kmh SE 9.0 mph14.5 kmh 30.27 in1025.1 mb 0.00 in0.0 mm 0.00 in/hr0.0 mm/hr 0.00 in0.0 mm
03:40 PM 76.2°F24.6°C 56.7°F13.7°C 51% 3.2 mph S5.1 kmh S 7.0 mph11.3 kmh 30.27 in1025.1 mb 0.00 in0.0 mm 0.00 in/hr0.0 mm/hr 0.00 in0.0 mm
03:50 PM 76.0°F24.4°C 56.6°F13.7°C 51% 4.8 mph S7.7 kmh S 9.0 mph14.5 kmh 30.27 in1025.1 mb 0.00 in0.0 mm 0.00 in/hr0.0 mm/hr 0.00 in0.0 mm
04:00 PM 75.7°F24.3°C 56.8°F13.8°C 52% 2.6 mph S4.2 kmh S 10.0 mph16.1 kmh 30.27 in1025.1 mb 0.00 in0.0 mm 0.00 in/hr0.0 mm/hr 0.00 in0.0 mm
04:10 PM 75.6°F24.2°C 56.7°F13.7°C 52% 3.9 mph SE6.3 kmh SE 9.0 mph14.5 kmh 30.27 in1025.1 mb 0.00 in0.0 mm 0.00 in/hr0.0 mm/hr 0.00 in0.0 mm
04:20 PM 75.4°F24.1°C 56.5°F13.6°C 52% 5.2 mph SE8.4 kmh SE 8.0 mph12.9 kmh 30.27 in1025.1 mb 0.00 in0.0 mm 0.00 in/hr0.0 mm/hr 0.00 in0.0 mm
04:30 PM 75.1°F23.9°C 56.3°F13.5°C 52% 5.5 mph S8.9 kmh S 10.0 mph16.1 kmh 30.27 in1025.1 mb 0.00 in0.0 mm 0.00 in/hr0.0 mm/hr 0.00 in0.0 mm
04:40 PM 74.9°F23.8°C 56.6°F13.7°C 53% 2.7 mph S4.3 kmh S 8.0 mph12.9 kmh 30.27 in1025.1 mb 0.00 in0.0 mm 0.00 in/hr0.0 mm/hr 0.00 in0.0 mm
04:50 PM 74.2°F23.4°C 56.0°F13.3°C 53% 3.7 mph S6.0 kmh S 7.0 mph11.3 kmh 30.27 in1025.1 mb 0.00 in0.0 mm 0.00 in/hr0.0 mm/hr 0.00 in0.0 mm
05:00 PM 74.0°F23.3°C 56.3°F13.5°C 54% 4.3 mph S6.9 kmh S 7.0 mph11.3 kmh 30.27 in1025.1 mb 0.00 in0.0 mm 0.00 in/hr0.0 mm/hr 0.00 in0.0 mm
05:10 PM 73.5°F23.1°C 55.9°F13.3°C 54% 2.2 mph S3.5 kmh S -- 30.27 in1025.1 mb 0.00 in0.0 mm 0.00 in/hr0.0 mm/hr 0.00 in0.0 mm
05:20 PM 73.3°F22.9°C 56.2°F13.4°C 55% 4.3 mph SSE6.9 kmh SSE 6.0 mph9.7 kmh 30.26 in1024.7 mb 0.00 in0.0 mm 0.00 in/hr0.0 mm/hr 0.00 in0.0 mm
05:30 PM 72.7°F22.6°C 56.6°F13.7°C 57% 1.5 mph SSE2.4 kmh SSE 7.0 mph11.3 kmh 30.26 in1024.7 mb 0.00 in0.0 mm 0.00 in/hr0.0 mm/hr 0.00 in0.0 mm
05:40 PM 71.8°F22.1°C 56.2°F13.4°C 58% 0.7 mph SSE1.1 kmh SSE -- 30.26 in1024.7 mb 0.00 in0.0 mm 0.00 in/hr0.0 mm/hr 0.00 in0.0 mm
05:50 PM 71.3°F21.8°C 56.7°F13.7°C 60% Calm Calm -- 30.26 in1024.7 mb 0.00 in0.0 mm 0.00 in/hr0.0 mm/hr 0.00 in0.0 mm
06:00 PM 70.6°F21.4°C 56.5°F13.6°C 61% Calm Calm -- 30.26 in1024.7 mb 0.00 in0.0 mm 0.00 in/hr0.0 mm/hr 0.00 in0.0 mm
06:10 PM 70.3°F21.3°C 57.1°F13.9°C 63% Calm Calm -- 30.26 in1024.7 mb 0.00 in0.0 mm 0.00 in/hr0.0 mm/hr 0.00 in0.0 mm
06:20 PM 69.6°F20.9°C 57.7°F14.3°C 66% Calm Calm -- 30.26 in1024.7 mb 0.00 in0.0 mm 0.00 in/hr0.0 mm/hr 0.00 in0.0 mm
06:30 PM 68.8°F20.4°C 57.4°F14.1°C 67% Calm Calm -- 30.27 in1025.1 mb 0.00 in0.0 mm 0.00 in/hr0.0 mm/hr 0.00 in0.0 mm
06:40 PM 68.2°F20.1°C 57.2°F14.0°C 68% Calm Calm -- 30.27 in1025.1 mb 0.00 in0.0 mm 0.00 in/hr0.0 mm/hr 0.00 in0.0 mm
06:50 PM 67.6°F19.8°C 57.0°F13.9°C 69% Calm Calm -- 30.27 in1025.1 mb 0.00 in0.0 mm 0.00 in/hr0.0 mm/hr 0.00 in0.0 mm
07:00 PM 67.0°F19.4°C 56.9°F13.8°C 70% Calm Calm -- 30.27 in1025.1 mb 0.00 in0.0 mm 0.00 in/hr0.0 mm/hr 0.00 in0.0 mm
07:10 PM 66.6°F19.2°C 56.9°F13.8°C 71% Calm Calm -- 30.27 in1025.1 mb 0.00 in0.0 mm 0.00 in/hr0.0 mm/hr 0.00 in0.0 mm
07:20 PM 66.2°F19.0°C 56.5°F13.6°C 71% Calm Calm -- 30.27 in1025.1 mb 0.00 in0.0 mm 0.00 in/hr0.0 mm/hr 0.00 in0.0 mm
07:30 PM 65.9°F18.8°C 56.6°F13.7°C 72% Calm Calm -- 30.28 in1025.4 mb 0.00 in0.0 mm 0.00 in/hr0.0 mm/hr 0.00 in0.0 mm
07:40 PM 65.6°F18.7°C 56.7°F13.7°C 73% Calm Calm -- 30.28 in1025.4 mb 0.00 in0.0 mm 0.00 in/hr0.0 mm/hr 0.00 in0.0 mm
07:50 PM 65.3°F18.5°C 56.4°F13.6°C 73% Calm Calm -- 30.28 in1025.4 mb 0.00 in0.0 mm 0.00 in/hr0.0 mm/hr 0.00 in0.0 mm
08:00 PM 64.9°F18.3°C 56.0°F13.3°C 73% Calm Calm -- 30.28 in1025.4 mb 0.00 in0.0 mm 0.00 in/hr0.0 mm/hr 0.00 in0.0 mm
08:10 PM 64.5°F18.1°C 56.0°F13.3°C 74% Calm Calm -- 30.28 in1025.4 mb 0.00 in0.0 mm 0.00 in/hr0.0 mm/hr 0.00 in0.0 mm
08:20 PM 64.1°F17.8°C 56.0°F13.3°C 75% Calm Calm -- 30.29 in1025.7 mb 0.00 in0.0 mm 0.00 in/hr0.0 mm/hr 0.00 in0.0 mm
08:30 PM 63.8°F17.7°C 55.7°F13.2°C 75% Calm Calm -- 30.28 in1025.4 mb 0.00 in0.0 mm 0.00 in/hr0.0 mm/hr 0.00 in0.0 mm
08:40 PM 63.8°F17.7°C 55.7°F13.2°C 75% Calm Calm -- 30.29 in1025.7 mb 0.00 in0.0 mm 0.00 in/hr0.0 mm/hr 0.00 in0.0 mm
08:50 PM 63.6°F17.6°C 55.5°F13.1°C 75% Calm Calm -- 30.29 in1025.7 mb 0.00 in0.0 mm 0.00 in/hr0.0 mm/hr 0.00 in0.0 mm
09:00 PM 63.4°F17.4°C 55.7°F13.2°C 76% Calm Calm -- 30.29 in1025.7 mb 0.00 in0.0 mm 0.00 in/hr0.0 mm/hr 0.00 in0.0 mm
09:10 PM 63.7°F17.6°C 55.6°F13.1°C 75% 4.9 mph SE7.9 kmh SE 8.0 mph12.9 kmh 30.28 in1025.4 mb 0.00 in0.0 mm 0.00 in/hr0.0 mm/hr 0.00 in0.0 mm
09:20 PM 63.9°F17.7°C 55.4°F13.0°C 74% 2.9 mph SE4.7 kmh SE 6.0 mph9.7 kmh 30.28 in1025.4 mb 0.00 in0.0 mm 0.00 in/hr0.0 mm/hr 0.00 in0.0 mm
09:30 PM 63.8°F17.7°C 55.4°F13.0°C 74% 4.6 mph SE7.4 kmh SE 8.0 mph12.9 kmh 30.28 in1025.4 mb 0.00 in0.0 mm 0.00 in/hr0.0 mm/hr 0.00 in0.0 mm
09:40 PM 63.5°F17.5°C 55.1°F12.8°C 74% 3.9 mph SE6.3 kmh SE 7.0 mph11.3 kmh 30.28 in1025.4 mb 0.00 in0.0 mm 0.00 in/hr0.0 mm/hr 0.00 in0.0 mm
09:50 PM 63.1°F17.3°C 55.0°F12.8°C 75% 4.1 mph SE6.6 kmh SE 6.0 mph9.7 kmh 30.27 in1025.1 mb 0.00 in0.0 mm 0.00 in/hr0.0 mm/hr 0.00 in0.0 mm
10:00 PM 62.7°F17.1°C 54.7°F12.6°C 75% 4.7 mph SE7.6 kmh SE 6.0 mph9.7 kmh 30.27 in1025.1 mb 0.00 in0.0 mm 0.00 in/hr0.0 mm/hr 0.00 in0.0 mm
10:10 PM 62.4°F16.9°C 54.3°F12.4°C 75% 3.5 mph SE5.6 kmh SE 8.0 mph12.9 kmh 30.27 in1025.1 mb 0.00 in0.0 mm 0.00 in/hr0.0 mm/hr 0.00 in0.0 mm
10:20 PM 62.0°F16.7°C 54.3°F12.4°C 76% 0.3 mph SSE0.5 kmh SSE -- 30.27 in1025.1 mb 0.00 in0.0 mm 0.00 in/hr0.0 mm/hr 0.00 in0.0 mm
10:30 PM 61.6°F16.4°C 54.0°F12.2°C 76% Calm Calm -- 30.27 in1025.1 mb 0.00 in0.0 mm 0.00 in/hr0.0 mm/hr 0.00 in0.0 mm
10:40 PM 61.1°F16.2°C 53.8°F12.1°C 77% Calm Calm -- 30.26 in1024.7 mb 0.00 in0.0 mm 0.00 in/hr0.0 mm/hr 0.00 in0.0 mm
10:50 PM 60.7°F15.9°C 53.5°F11.9°C 77% Calm Calm -- 30.26 in1024.7 mb 0.00 in0.0 mm 0.00 in/hr0.0 mm/hr 0.00 in0.0 mm
11:00 PM 60.5°F15.8°C 53.3°F11.8°C 77% Calm Calm -- 30.25 in1024.4 mb 0.00 in0.0 mm 0.00 in/hr0.0 mm/hr 0.00 in0.0 mm
11:10 PM 60.2°F15.7°C 53.0°F11.7°C 77% Calm Calm -- 30.25 in1024.4 mb 0.00 in0.0 mm 0.00 in/hr0.0 mm/hr 0.00 in0.0 mm
11:20 PM 59.9°F15.5°C 52.7°F11.5°C 77% Calm Calm -- 30.24 in1024.0 mb 0.00 in0.0 mm 0.00 in/hr0.0 mm/hr 0.00 in0.0 mm
11:30 PM 59.6°F15.3°C 52.4°F11.3°C 77% Calm Calm -- 30.24 in1024.0 mb 0.00 in0.0 mm 0.00 in/hr0.0 mm/hr 0.00 in0.0 mm
11:40 PM 59.4°F15.2°C 51.8°F11.0°C 76% Calm Calm -- 30.23 in1023.7 mb 0.00 in0.0 mm 0.00 in/hr0.0 mm/hr 0.00 in0.0 mm
11:50 PM 59.2°F15.1°C 52.0°F11.1°C 77% Calm Calm -- 30.23 in1023.7 mb 0.00 in0.0 mm 0.00 in/hr0.0 mm/hr 0.00 in0.0 mm